Time;durP1;ratioP1;P1;durP2;ratioP2;P2;SDS_P1;SDS_P2;PMS_P1;PMS_P2;Temp;Humidity;BMP_temperature;BMP_pressure;BME280_temperature;BME280_humidity;BME280_pressure;Samples;Min_cycle;Max_cycle;Signal;HPM_P1;HPM_P2
2021/04/19 00:00:23;;;;;;;32.73;19.65;;;;;;;3.90;88.83;100610.91;1766903;81;21211;-52
2021/04/19 00:02:51;;;;;;;25.97;18.27;;;;;;;3.89;88.78;100609.27;1766879;81;21001;-51
2021/04/19 00:05:21;;;;;;;27.40;18.70;;;;;;;3.88;88.74;100607.60;1766942;81;21017;-51
2021/04/19 00:07:49;;;;;;;28.10;18.57;;;;;;;3.88;88.61;100607.60;1766870;81;21011;-51
2021/04/19 00:10:21;;;;;;;19.25;15.70;;;;;;;3.88;88.67;100602.16;1766733;81;21036;-51
2021/04/19 00:12:48;;;;;;;23.65;14.80;;;;;;;3.87;88.70;100604.03;1766970;81;21204;-51
2021/04/19 00:15:17;;;;;;;20.32;14.45;;;;;;;3.89;88.85;100595.69;1766817;81;21400;-51
2021/04/19 00:17:47;;;;;;;23.05;16.12;;;;;;;3.92;88.88;100600.66;1766932;81;21060;-51
2021/04/19 00:20:18;;;;;;;20.75;15.53;;;;;;;3.93;88.79;100596.86;1766919;81;21666;-51
2021/04/19 00:22:46;;;;;;;18.45;14.47;;;;;;;3.94;88.68;100595.82;1766993;81;21001;-51
2021/04/19 00:25:16;;;;;;;22.60;13.00;;;;;;;3.96;88.77;100593.72;1766980;81;21284;-51
2021/04/19 00:27:43;;;;;;;14.23;10.93;;;;;;;4.00;88.82;100590.02;1766950;81;21634;-51
2021/04/19 00:30:14;;;;;;;15.38;11.15;;;;;;;4.02;88.75;100584.66;1767006;81;21330;-51
2021/04/19 00:32:43;;;;;;;13.35;11.43;;;;;;;4.04;88.66;100583.89;1766919;81;21630;-51
2021/04/19 00:35:12;;;;;;;18.10;12.13;;;;;;;4.06;88.60;100582.30;1767009;81;21029;-51
2021/04/19 00:37:40;;;;;;;16.77;11.68;;;;;;;4.08;88.54;100582.92;1767126;81;22270;-51
2021/04/19 00:40:13;;;;;;;19.85;14.50;;;;;;;4.07;88.38;100582.11;1767045;81;21057;-51
2021/04/19 00:42:41;;;;;;;21.15;15.03;;;;;;;4.05;88.32;100577.41;1766683;79;21496;-51
2021/04/19 00:45:11;;;;;;;22.17;15.90;;;;;;;4.02;88.18;100578.40;1736125;81;21072;-51
2021/04/19 00:47:39;;;;;;;19.20;14.53;;;;;;;3.97;87.94;100579.91;1766412;81;21005;-51
2021/04/19 00:50:10;;;;;;;20.17;15.45;;;;;;;3.92;87.82;100570.77;1766425;81;21258;-51
2021/04/19 00:52:37;;;;;;;23.05;17.15;;;;;;;3.87;87.59;100575.50;1766230;81;21057;-51
2021/04/19 00:55:12;;;;;;;18.60;14.03;;;;;;;3.80;87.53;100575.59;1766447;81;21017;-51
2021/04/19 00:57:47;;;;;;;18.32;11.75;;;;;;;3.83;87.48;100572.10;1846154;76;22682;-53
2021/04/19 01:00:22;;;;;;;15.25;11.28;;;;;;;3.68;87.48;100576.02;1816309;78;21022;-51
2021/04/19 01:02:50;;;;;;;13.53;10.63;;;;;;;3.67;87.53;100580.31;1816196;79;22112;-53
2021/04/19 01:05:25;;;;;;;14.80;10.75;;;;;;;3.65;87.73;100576.47;1816146;79;21050;-53
2021/04/19 01:07:53;;;;;;;11.70;10.05;;;;;;;3.70;87.91;100568.48;1816208;79;21006;-51
2021/04/19 01:10:21;;;;;;;12.33;9.68;;;;;;;3.73;87.94;100572.62;1816052;78;21010;-51
2021/04/19 01:12:49;;;;;;;10.68;9.35;;;;;;;3.75;87.94;100573.23;1816169;79;21054;-51
2021/04/19 01:15:18;;;;;;;12.40;8.85;;;;;;;3.76;88.03;100566.22;1816171;79;21389;-52
2021/04/19 01:17:47;;;;;;;10.43;8.60;;;;;;;3.77;88.08;100563.81;1816225;79;20985;-52
2021/04/19 01:20:20;;;;;;;11.85;9.60;;;;;;;3.77;87.93;100565.68;1816116;79;20978;-51
2021/04/19 01:22:48;;;;;;;11.55;9.18;;;;;;;3.74;87.81;100561.52;1815899;79;21005;-52
2021/04/19 01:25:21;;;;;;;12.40;9.80;;;;;;;3.73;87.88;100557.17;1816208;78;20982;-51
2021/04/19 01:27:50;;;;;;;11.83;8.78;;;;;;;3.74;88.01;100558.80;1816217;79;21416;-51
2021/04/19 01:30:20;;;;;;;11.10;8.68;;;;;;;3.74;88.05;100554.73;1816149;79;21540;-51
2021/04/19 01:32:48;;;;;;;11.93;9.75;;;;;;;3.74;88.04;100550.66;1816256;79;21610;-51
2021/04/19 01:35:18;;;;;;;12.70;9.55;;;;;;;3.74;88.12;100556.09;1816139;79;21006;-51
2021/04/19 01:37:46;;;;;;;12.75;10.20;;;;;;;3.77;88.16;100558.89;1816182;79;20990;-51
2021/04/19 01:40:16;;;;;;;10.82;9.30;;;;;;;3.82;88.22;100556.88;1816105;79;21234;-51
2021/04/19 01:42:45;;;;;;;14.35;11.43;;;;;;;3.80;88.23;100559.28;1786135;79;21049;-51
2021/04/19 01:45:17;;;;;;;17.05;12.40;;;;;;;3.81;88.15;100560.11;1783910;80;21013;-51
2021/04/19 01:47:44;;;;;;;16.85;12.95;;;;;;;3.78;88.10;100557.30;1784086;80;21044;-51
2021/04/19 01:50:17;;;;;;;21.25;17.12;;;;;;;3.76;87.98;100553.17;1784002;80;20978;-53
2021/04/19 01:52:45;;;;;;;19.17;15.00;;;;;;;3.74;87.95;100560.70;1753588;80;21591;-51
2021/04/19 01:55:16;;;;;;;22.48;15.90;;;;;;;3.71;87.84;100547.03;1784028;80;20985;-51
2021/04/19 01:57:52;;;;;;;24.40;14.75;;;;;;;3.68;87.70;100558.36;1796413;79;21293;-51
2021/04/19 02:00:23;;;;;;;21.07;12.07;;;;;;;3.64;87.64;100553.06;1798783;79;22162;-51
2021/04/19 02:03:16;;;;;;;16.15;11.30;;;;;;;3.58;87.42;100551.25;1798453;79;20989;-51
2021/04/19 02:06:08;;;;;;;17.52;12.23;;;;;;;3.52;87.41;100556.23;1771919;79;21363;-51
2021/04/19 02:09:21;;;;;;;16.37;12.90;;;;;;;3.48;87.44;100555.02;1798020;79;21147;-51
2021/04/19 02:12:24;;;;;;;14.23;11.63;;;;;;;3.43;87.49;100553.80;1796831;79;21020;-51
2021/04/19 02:15:16;;;;;;;14.35;10.70;;;;;;;3.38;87.55;100551.44;1797754;79;21056;-51
2021/04/19 02:18:12;;;;;;;14.33;9.95;;;;;;;3.39;87.54;100545.78;1866817;76;27913;-51
2021/04/19 02:20:57;;;;;;;14.78;10.13;;;;;;;3.40;87.44;100544.74;1851134;77;20989;-51
2021/04/19 02:23:39;;;;;;;13.15;10.18;;;;;;;3.41;87.39;100554.53;1851044;77;21182;-51
2021/04/19 02:26:12;;;;;;;15.78;10.80;;;;;;;3.39;87.29;100551.22;1850949;77;21029;-53
2021/04/19 02:28:48;;;;;;;17.23;10.78;;;;;;;3.37;87.34;100557.41;1820425;77;21009;-51
2021/04/19 02:31:18;;;;;;;14.60;11.20;;;;;;;3.35;87.41;100553.25;1851049;77;20985;-52
2021/04/19 02:33:46;;;;;;;17.20;11.45;;;;;;;3.34;87.45;100556.47;1820383;77;21555;-52
2021/04/19 02:36:14;;;;;;;16.97;12.10;;;;;;;3.35;87.69;100551.89;1850977;77;21178;-52
2021/04/19 02:38:48;;;;;;;13.68;11.38;;;;;;;3.38;87.94;100551.44;1850119;77;21576;-51
2021/04/19 02:41:17;;;;;;;13.88;11.70;;;;;;;3.42;88.04;100556.73;1808816;78;20970;-51
2021/04/19 02:43:44;;;;;;;18.15;11.53;;;;;;;3.44;88.10;100560.05;1817507;78;20946;-52
2021/04/19 02:46:13;;;;;;;12.65;10.08;;;;;;;3.46;88.06;100558.77;1817447;78;20969;-51
2021/04/19 02:48:42;;;;;;;18.90;12.13;;;;;;;3.44;87.86;100559.54;1817621;78;21429;-52
2021/04/19 02:51:17;;;;;;;19.48;14.03;;;;;;;3.44;87.85;100559.54;1816959;78;21157;-52
2021/04/19 02:53:44;;;;;;;24.65;14.68;;;;;;;3.42;87.75;100560.27;1817652;78;21267;-51
2021/04/19 02:56:12;;;;;;;19.52;14.47;;;;;;;3.38;87.63;100555.52;1817480;78;21020;-52
2021/04/19 02:58:51;;;;;;;18.17;13.70;;;;;;;3.37;87.55;100555.20;1817470;78;21022;-51
2021/04/19 03:01:27;;;;;;;21.55;12.85;;;;;;;3.30;87.39;100544.39;1817496;78;22639;-51
2021/04/19 03:04:02;;;;;;;;;;;;;;;3.25;87.27;100551.03;1790486;78;21009;-51
2021/04/19 03:06:30;;;;;;;28.70;12.33;;;;;;;3.20;87.24;100553.56;1817087;78;20156;-52
2021/04/19 03:09:01;;;;;;;19.87;12.18;;;;;;;3.15;87.27;100555.59;1817481;78;20977;-51
2021/04/19 03:11:53;;;;;;;39.05;15.35;;;;;;;3.11;87.23;100553.86;1817561;78;20978;-52
2021/04/19 03:14:25;;;;;;;55.83;22.85;;;;;;;3.09;87.45;100551.88;1817618;78;21366;-51
2021/04/19 03:17:06;;;;;;;49.63;20.55;;;;;;;3.10;87.61;100554.05;1816971;78;21041;-52
2021/04/19 03:19:47;;;;;;;57.85;19.75;;;;;;;3.14;87.67;100561.25;1813737;78;21025;-51
2021/04/19 03:22:16;;;;;;;39.95;20.10;;;;;;;3.19;87.62;100563.61;1817507;78;20997;-51
2021/04/19 03:24:44;;;;;;;35.75;17.57;;;;;;;3.20;87.54;100559.84;1817637;78;20954;-51
2021/04/19 03:27:13;;;;;;;28.98;15.48;;;;;;;3.20;87.49;100564.42;1815926;78;21625;-51
2021/04/19 03:29:43;;;;;;;30.12;17.52;;;;;;;3.23;87.64;100562.62;1816872;79;21578;-51
2021/04/19 03:32:18;;;;;;;23.87;17.15;;;;;;;3.24;87.79;100570.57;1816651;79;21179;-51
2021/04/19 03:34:47;;;;;;;34.20;20.75;;;;;;;3.34;88.25;100570.58;1816713;79;21662;-52
2021/04/19 03:37:21;;;;;;;44.88;29.65;;;;;;;3.48;88.35;100569.41;1816868;79;20989;-51
2021/04/19 03:39:57;;;;;;;35.33;23.22;;;;;;;3.57;88.38;100564.52;1816817;79;21185;-52
2021/04/19 03:42:26;;;;;;;33.55;20.82;;;;;;;3.73;88.71;100561.75;1816954;77;21017;-52
2021/04/19 03:44:54;;;;;;;34.65;22.62;;;;;;;3.88;88.82;100560.86;1816936;79;21056;-51
2021/04/19 03:47:24;;;;;;;49.98;25.15;;;;;;;4.00;88.70;100554.14;1813374;79;21037;-52
2021/04/19 03:50:08;;;;;;;59.50;27.00;;;;;;;4.10;88.19;100553.10;1844099;76;23355;-51
2021/04/19 03:52:40;;;;;;;66.62;27.60;;;;;;;4.04;87.95;100553.98;1816109;78;21037;-51
2021/04/19 03:55:12;;;;;;;41.35;24.43;;;;;;;4.08;87.92;100548.41;1785027;79;21245;-51
2021/04/19 03:57:42;;;;;;;41.85;23.10;;;;;;;4.12;87.86;100551.52;1784509;79;21041;-53
2021/04/19 04:00:17;;;;;;;37.55;22.62;;;;;;;4.20;88.06;100558.52;1816404;79;21540;-51
2021/04/19 04:02:47;;;;;;;32.00;21.95;;;;;;;4.31;88.03;100552.31;1816065;79;21029;-50
2021/04/19 04:05:17;;;;;;;79.80;23.30;;;;;;;4.42;88.07;100546.65;1815495;79;21635;-50
2021/04/19 04:07:58;;;;;;;50.38;22.58;;;;;;;4.52;87.94;100552.91;1813320;79;21595;-51
2021/04/19 04:10:27;;;;;;;49.05;26.82;;;;;;;4.60;87.77;100547.12;1784375;79;21195;-50
2021/04/19 04:12:55;;;;;;;59.60;26.55;;;;;;;4.66;87.66;100548.39;1816232;79;21572;-51
2021/04/19 04:15:23;;;;;;;57.58;23.02;;;;;;;4.77;87.65;100550.02;1816051;79;21005;-51
2021/04/19 04:17:53;;;;;;;50.60;24.52;;;;;;;4.89;87.62;100557.70;1815115;79;21009;-51
2021/04/19 04:20:22;;;;;;;38.55;23.45;;;;;;;5.02;87.51;100563.47;1814495;79;21017;-51
2021/04/19 04:22:53;;;;;;;38.33;24.07;;;;;;;5.16;87.35;100564.92;1816045;79;21037;-51
2021/04/19 04:25:23;;;;;;;35.43;22.80;;;;;;;5.29;87.14;100565.78;1784995;79;21018;-51
2021/04/19 04:27:51;;;;;;;51.42;24.43;;;;;;;5.42;86.98;100567.45;1784348;79;21026;-51
2021/04/19 04:30:21;;;;;;;43.92;22.15;;;;;;;5.53;86.64;100570.17;1784890;79;20974;-51
2021/04/19 04:33:05;;;;;;;36.60;22.58;;;;;;;5.66;86.26;100568.30;1815088;79;21253;-51
2021/04/19 04:35:38;;;;;;;44.40;22.58;;;;;;;5.81;86.04;100565.89;1815729;79;21076;-51
2021/04/19 04:38:23;;;;;;;33.05;21.45;;;;;;;5.96;85.79;100568.14;1814670;79;20963;-51
2021/04/19 04:40:59;;;;;;;31.60;20.63;;;;;;;6.31;85.09;100569.98;1808412;78;21911;-51
2021/04/19 04:43:37;;;;;;;39.83;23.38;;;;;;;6.31;85.09;100569.98;1784440;80;22170;-52
2021/04/19 04:46:21;;;;;;;28.32;19.20;;;;;;;6.47;84.34;100577.94;1752941;81;21357;-52
2021/04/19 04:49:19;;;;;;;31.73;18.57;;;;;;;6.62;83.92;100565.70;1758307;81;20961;-52
2021/04/19 04:55:17;;;;;;;21.62;15.35;;;;;;;6.90;82.08;100566.19;1767039;81;21016;-51
2021/04/19 04:57:51;;;;;;;50.70;18.07;;;;;;;7.00;81.04;100571.02;1766983;81;21049;-52
2021/04/19 05:00:25;;;;;;;24.05;15.68;;;;;;;7.09;80.47;100569.00;1766778;81;21193;-52
2021/04/19 05:06:37;;;;;;;28.30;16.32;;;;;;;7.28;79.50;100566.59;1766561;81;21837;-51
2021/04/19 05:09:10;;;;;;;25.85;14.07;;;;;;;7.43;78.83;100562.71;1741547;81;21016;-52
2021/04/19 05:11:46;;;;;;;21.35;14.78;;;;;;;7.52;78.14;100560.42;1766350;81;21005;-51
2021/04/19 05:14:29;;;;;;;28.92;12.50;;;;;;;7.60;77.59;100564.07;1766417;81;21391;-52
2021/04/19 05:17:05;;;;;;;16.23;9.78;;;;;;;7.70;76.84;100564.77;1766435;81;20973;-52
2021/04/19 05:19:47;;;;;;;14.35;10.60;;;;;;;7.77;76.38;100558.58;1766371;81;21017;-52
2021/04/19 05:26:02;;;;;;;18.57;12.00;;;;;;;8.04;75.64;100566.07;1766548;81;21032;-51
2021/04/19 05:28:43;;;;;;;18.35;10.98;;;;;;;8.20;74.71;100556.15;1766506;81;21205;-51
2021/04/19 05:31:22;;;;;;;15.30;11.03;;;;;;;8.30;73.90;100557.12;1763433;81;21029;-50
2021/04/19 05:33:57;;;;;;;19.37;12.55;;;;;;;8.42;73.43;100562.45;1766515;81;21005;-51
2021/04/19 05:36:33;;;;;;;11.95;8.05;;;;;;;8.53;72.87;100565.33;1766513;81;20989;-50
2021/04/19 05:39:07;;;;;;;16.07;9.83;;;;;;;8.63;72.40;100564.07;1725427;82;21013;-50
2021/04/19 05:41:43;;;;;;;16.07;10.20;;;;;;;8.74;71.88;100560.91;1726136;82;22130;-51
2021/04/19 05:44:16;;;;;;;;;;;;;;;8.84;71.21;100563.75;1750717;82;21033;-51
2021/04/19 05:46:52;;;;;;;11.68;8.73;;;;;;;8.94;70.95;100565.22;1748271;82;20513;-50
2021/04/19 05:49:27;;;;;;;22.17;10.98;;;;;;;9.02;70.66;100559.83;1750022;81;21083;-51
2021/04/19 05:55:37;;;;;;;37.50;11.30;;;;;;;9.17;69.95;100553.64;1752509;81;21587;-51
2021/04/19 05:58:32;;;;;;;14.73;8.70;;;;;;;9.25;69.40;100555.91;1752389;81;21021;-51
2021/04/19 06:01:15;;;;;;;18.70;10.15;;;;;;;9.31;69.26;100553.48;1752403;81;21038;-50
2021/04/19 06:08:07;;;;;;;11.38;8.48;;;;;;;9.42;68.48;100555.78;1752276;81;21823;-51
2021/04/19 06:10:54;;;;;;;12.47;8.70;;;;;;;9.40;68.28;100562.61;1752412;81;21353;-51
2021/04/19 06:13:35;;;;;;;25.17;17.80;;;;;;;9.40;67.97;100550.27;1775189;79;22746;-54
2021/04/19 06:16:04;;;;;;;31.82;15.25;;;;;;;9.33;68.21;100552.70;1747611;82;21018;-53
2021/04/19 06:18:31;;;;;;;38.02;21.77;;;;;;;9.42;68.37;100551.66;1747482;82;21361;-54
2021/04/19 06:21:01;;;;;;;27.90;18.48;;;;;;;9.53;68.51;100546.25;1742324;82;21093;-53
2021/04/19 06:23:29;;;;;;;19.40;12.37;;;;;;;9.61;68.57;100545.77;1679239;85;21083;-53
2021/04/19 06:25:58;;;;;;;16.70;11.35;;;;;;;9.72;68.17;100546.12;1708664;83;21086;-53
2021/04/19 06:28:28;;;;;;;22.48;13.68;;;;;;;9.85;68.21;100540.70;1653733;85;21074;-53
2021/04/19 06:30:57;;;;;;;20.08;11.55;;;;;;;9.97;67.87;100541.86;1674770;84;22737;-53
2021/04/19 06:33:26;;;;;;;16.27;11.15;;;;;;;10.05;67.65;100546.84;1698008;82;21121;-54
2021/04/19 06:35:54;;;;;;;16.10;11.97;;;;;;;10.12;67.27;100545.24;1680852;85;21075;-53
2021/04/19 06:38:22;;;;;;;19.75;11.18;;;;;;;10.15;66.47;100540.58;1699934;82;21084;-52
2021/04/19 06:40:52;;;;;;;16.40;10.25;;;;;;;10.21;66.77;100540.88;1679509;84;21109;-53
2021/04/19 06:43:19;;;;;;;15.58;10.18;;;;;;;10.32;66.61;100534.33;1669287;85;22334;-53
2021/04/19 07:45:25;;;;;;;10.68;6.83;;;;;;;12.50;62.32;100513.27;1785247;78;22835;-53
2021/04/19 07:47:53;;;;;;;10.58;7.37;;;;;;;12.58;61.56;100514.61;1756755;79;21053;-54
2021/04/19 07:50:22;;;;;;;10.08;6.95;;;;;;;12.71;61.61;100513.97;1759064;79;21615;-54
2021/04/19 07:52:59;;;;;;;11.55;7.47;;;;;;;12.82;61.28;100508.38;1757990;80;20983;-54
2021/04/19 07:55:37;;;;;;;7.72;6.45;;;;;;;12.92;60.67;100515.22;1758046;80;21034;-53
2021/04/19 07:58:17;;;;;;;9.23;6.28;;;;;;;12.96;60.30;100517.11;1764582;80;21927;-54
2021/04/19 08:00:46;;;;;;;9.40;7.25;;;;;;;13.02;60.65;100511.54;1761357;80;21686;-53
2021/04/19 08:03:19;;;;;;;19.17;8.33;;;;;;;13.12;60.64;100513.67;1760550;79;21268;-53
2021/04/19 08:05:52;;;;;;;10.30;7.12;;;;;;;13.24;60.32;100509.72;1758546;80;21078;-54
2021/04/19 08:08:33;;;;;;;10.18;7.03;;;;;;;13.30;59.94;100505.80;1762057;80;21025;-54
2021/04/19 08:11:09;;;;;;;9.73;6.78;;;;;;;13.41;59.92;100515.66;1734150;80;21025;-54
2021/04/19 08:13:37;;;;;;;9.48;7.35;;;;;;;13.48;58.98;100509.24;1756122;80;21687;-54
2021/04/19 08:16:25;;;;;;;11.25;7.65;;;;;;;13.52;59.64;100501.75;1764827;79;21371;-54
2021/04/19 08:19:00;;;;;;;10.43;7.05;;;;;;;13.64;59.64;100502.19;1759086;80;21032;-54
2021/04/19 08:21:27;;;;;;;8.75;7.15;;;;;;;13.81;59.13;100503.12;1759137;79;21005;-53
2021/04/19 08:23:55;;;;;;;13.53;7.40;;;;;;;13.90;58.11;100501.91;1762843;80;20974;-53
2021/04/19 08:26:22;;;;;;;9.78;6.42;;;;;;;13.98;57.74;100499.89;1755805;80;21071;-55
2021/04/19 08:28:49;;;;;;;9.28;8.00;;;;;;;14.06;57.05;100502.55;1758253;80;22102;-54
2021/04/19 08:31:17;;;;;;;10.55;6.70;;;;;;;14.13;56.37;100492.80;1764814;80;22043;-53
2021/04/19 08:33:46;;;;;;;9.18;7.00;;;;;;;14.25;56.43;100499.84;1764746;79;20991;-54
2021/04/19 08:36:15;;;;;;;11.38;6.17;;;;;;;14.38;55.84;100500.48;1763188;79;20932;-54
2021/04/19 08:38:45;;;;;;;11.57;7.60;;;;;;;14.43;54.63;100491.29;1760867;80;20974;-53
2021/04/19 08:41:12;;;;;;;11.85;7.92;;;;;;;14.48;55.05;100493.42;1696509;81;22308;-54
2021/04/19 08:43:40;;;;;;;9.60;6.58;;;;;;;14.61;54.71;100485.52;1729850;81;21082;-54
2021/04/19 08:46:13;;;;;;;9.18;5.83;;;;;;;14.78;53.83;100493.31;1705770;81;21388;-54
2021/04/19 08:48:42;;;;;;;8.28;6.33;;;;;;;14.98;54.17;100477.77;1686767;84;21006;-54
2021/04/19 08:51:09;;;;;;;8.70;5.87;;;;;;;15.18;53.24;100482.70;1713824;82;20943;-54
2021/04/19 08:53:37;;;;;;;18.32;6.47;;;;;;;15.31;52.85;100482.48;1727510;81;21209;-54
2021/04/19 08:56:06;;;;;;;10.00;6.70;;;;;;;15.41;52.52;100486.45;1724471;81;21031;-53
2021/04/19 08:58:35;;;;;;;8.65;5.92;;;;;;;15.39;51.92;100487.33;1685281;83;21004;-54
2021/04/19 09:01:03;;;;;;;9.45;5.30;;;;;;;15.30;51.20;100487.75;1728255;81;20978;-54
2021/04/19 09:03:30;;;;;;;10.50;6.03;;;;;;;15.32;51.30;100478.60;1698671;83;21108;-54
2021/04/19 09:05:58;;;;;;;8.78;6.70;;;;;;;15.25;51.89;100487.86;1722415;81;21157;-54
2021/04/19 09:08:25;;;;;;;7.20;5.65;;;;;;;15.18;51.62;100486.86;1677426;82;21053;-54
2021/04/19 09:11:06;;;;;;;11.22;6.20;;;;;;;15.04;51.69;100488.19;1685653;81;21637;-53
2021/04/19 09:13:39;;;;;;;13.53;5.75;;;;;;;14.89;52.28;100491.20;1720387;81;21049;-54
2021/04/19 09:16:19;;;;;;;9.30;6.15;;;;;;;14.72;51.49;100489.80;1728769;81;20974;-54
2021/04/19 09:18:59;;;;;;;8.80;5.70;;;;;;;14.59;52.13;100481.67;1680108;84;21219;-54
2021/04/19 09:21:50;;;;;;;7.50;5.92;;;;;;;14.57;52.26;100479.75;1723027;81;21025;-53
2021/04/19 09:24:21;;;;;;;9.23;6.60;;;;;;;14.54;51.93;100481.73;1688949;83;20980;-54
2021/04/19 09:26:58;;;;;;;8.05;5.45;;;;;;;14.55;51.92;100479.24;1721139;81;21054;-54
2021/04/19 09:29:32;;;;;;;12.70;7.03;;;;;;;14.60;52.18;100481.10;1689132;83;20964;-55
2021/04/19 09:32:05;;;;;;;8.15;6.28;;;;;;;14.72;51.96;100483.44;1719616;81;21982;-54
2021/04/19 09:34:49;;;;;;;10.78;6.30;;;;;;;14.76;51.42;100484.48;1726852;81;21002;-53
2021/04/19 09:37:19;;;;;;;11.12;6.12;;;;;;;14.88;51.64;100490.39;1720057;81;20974;-53
2021/04/19 09:40:01;;;;;;;15.98;6.72;;;;;;;15.15;50.74;100485.52;1725569;81;21134;-53
2021/04/19 09:43:04;;;;;;;9.45;5.72;;;;;;;15.24;50.52;100484.25;1727252;82;21015;-54
2021/04/19 09:45:48;;;;;;;12.45;6.03;;;;;;;15.34;50.41;100483.25;1721526;81;21379;-54
2021/04/19 09:48:33;;;;;;;8.48;5.20;;;;;;;15.42;49.24;100485.33;1717949;81;21593;-55
2021/04/19 09:51:13;;;;;;;7.28;5.22;;;;;;;15.47;48.96;100478.30;1719486;82;20982;-55
2021/04/19 09:53:46;;;;;;;11.78;5.53;;;;;;;15.64;48.97;100489.36;1721512;82;21525;-55
2021/04/19 09:56:14;;;;;;;8.70;5.45;;;;;;;15.75;48.05;100486.65;1688351;83;21037;-55
2021/04/19 09:58:44;;;;;;;7.17;5.03;;;;;;;15.81;48.08;100483.25;1718987;81;21344;-54
2021/04/19 10:01:14;;;;;;;7.20;5.28;;;;;;;15.88;48.64;100487.23;1723065;82;21022;-55
2021/04/19 10:03:50;;;;;;;8.83;4.87;;;;;;;15.91;47.92;100480.27;1727898;82;21069;-54
2021/04/19 10:06:28;;;;;;;6.60;4.25;;;;;;;15.84;47.60;100482.62;1689348;83;21013;-54
2021/04/19 10:08:57;;;;;;;6.75;4.62;;;;;;;15.80;47.58;100485.17;1715393;82;21564;-55
2021/04/19 10:11:31;;;;;;;8.23;4.58;;;;;;;15.77;46.40;100488.53;1719700;82;22909;-55
2021/04/19 10:14:09;;;;;;;7.87;6.05;;;;;;;15.72;46.74;100488.66;1684741;83;21028;-54
2021/04/19 10:16:49;;;;;;;6.85;4.67;;;;;;;15.71;47.30;100485.05;1664057;84;21658;-54
2021/04/19 10:19:30;;;;;;;9.53;5.40;;;;;;;15.78;46.26;100480.49;1684052;84;21665;-55
2021/04/19 10:22:05;;;;;;;7.72;4.60;;;;;;;15.79;46.58;100484.95;1683055;83;21086;-55
2021/04/19 10:24:51;;;;;;;6.20;4.37;;;;;;;15.82;46.80;100489.05;1679608;84;22253;-54
2021/04/19 10:27:32;;;;;;;8.85;5.37;;;;;;;15.85;46.25;100486.47;1658072;84;21169;-55
2021/04/19 10:30:16;;;;;;;7.87;4.78;;;;;;;15.77;45.70;100494.07;1662667;84;21583;-54
2021/04/19 10:32:48;;;;;;;11.70;4.12;;;;;;;15.69;45.33;100494.78;1661391;84;21023;-54
2021/04/19 10:35:42;;;;;;;10.15;4.58;;;;;;;15.57;45.25;100488.94;1722975;81;20966;-55
2021/04/19 10:38:11;;;;;;;9.30;5.00;;;;;;;15.50;45.39;100488.78;1723635;82;21190;-56
2021/04/19 10:40:39;;;;;;;5.37;4.25;;;;;;;15.48;45.07;100492.41;1725306;82;21033;-55
2021/04/19 10:43:13;;;;;;;8.10;4.35;;;;;;;15.49;44.70;100488.52;1721451;82;21024;-54
2021/04/19 10:45:43;;;;;;;7.12;4.58;;;;;;;15.47;44.97;100492.71;1727281;81;21067;-55
2021/04/19 10:48:24;;;;;;;7.97;3.50;;;;;;;15.44;44.34;100482.25;1737507;81;21856;-54
2021/04/19 10:50:56;;;;;;;5.95;3.50;;;;;;;15.47;43.76;100487.17;1728528;81;21403;-53
2021/04/19 10:53:37;;;;;;;7.87;4.78;;;;;;;15.49;43.93;100485.75;1839377;76;22287;-54
2021/04/19 10:56:07;;;;;;;11.25;5.85;;;;;;;15.42;43.88;100501.09;1812581;77;20966;-55
2021/04/19 10:58:38;;;;;;;8.18;5.35;;;;;;;15.39;43.96;100494.25;1813455;77;21896;-55
2021/04/19 11:01:05;;;;;;;14.47;4.67;;;;;;;15.34;44.16;100487.41;1811656;77;21552;-54
2021/04/19 11:03:38;;;;;;;9.60;4.35;;;;;;;15.27;44.71;100486.98;1749717;81;20938;-53
2021/04/19 11:06:09;;;;;;;8.23;5.37;;;;;;;15.21;45.12;100489.02;1762787;79;21057;-54
2021/04/19 11:08:56;;;;;;;8.60;4.00;;;;;;;15.16;45.29;100491.31;1762098;81;20970;-54
2021/04/19 11:11:41;;;;;;;6.30;4.60;;;;;;;15.10;45.00;100488.35;1749325;79;22325;-55
2021/04/19 11:14:19;;;;;;;6.85;4.80;;;;;;;15.07;44.79;100487.58;1762997;81;20969;-55
2021/04/19 11:16:56;;;;;;;9.10;5.12;;;;;;;15.07;45.24;100482.05;1763449;79;20997;-56
2021/04/19 11:19:41;;;;;;;9.00;5.12;;;;;;;15.09;45.06;100486.73;1763218;79;20934;-54
2021/04/19 11:22:32;;;;;;;8.90;5.20;;;;;;;15.10;45.05;100477.86;1750594;81;21558;-54
2021/04/19 11:25:19;;;;;;;7.78;4.95;;;;;;;15.09;45.37;100476.20;1807239;77;21366;-55
2021/04/19 11:27:50;;;;;;;11.48;5.75;;;;;;;15.03;45.31;100478.23;1743356;81;21014;-53
2021/04/19 11:30:24;;;;;;;16.07;6.95;;;;;;;15.02;45.22;100473.28;1753676;81;21047;-54
2021/04/19 11:33:03;;;;;;;15.00;5.78;;;;;;;15.06;45.58;100472.13;1807668;79;20964;-53
2021/04/19 11:35:44;;;;;;;10.90;4.62;;;;;;;15.14;45.14;100471.98;1807814;77;20963;-53
2021/04/19 11:38:20;;;;;;;6.90;4.47;;;;;;;15.26;44.54;100469.56;1804154;79;21197;-54
2021/04/19 11:41:06;;;;;;;14.35;5.47;;;;;;;15.44;43.93;100460.92;1780073;79;21017;-54
2021/04/19 11:46:15;;;;;;;6.28;4.22;;;;;;;16.73;43.87;100470.70;1856949;75;22911;-54
2021/04/19 11:48:49;;;;;;;5.58;3.85;;;;;;;16.97;42.50;100467.66;1828408;77;20977;-54
2021/04/19 11:51:25;;;;;;;9.85;5.25;;;;;;;16.85;42.30;100464.05;1833153;77;21276;-55
2021/04/19 11:53:50;;;;;;;12.58;4.85;;;;;;;16.53;42.32;100463.14;1834170;77;21365;-55
2021/04/19 11:56:19;;;;;;;9.20;4.20;;;;;;;16.19;42.86;100467.22;1826625;76;20973;-55
2021/04/19 11:58:48;;;;;;;13.05;4.17;;;;;;;15.90;43.73;100466.16;1828976;77;20990;-54
2021/04/19 12:01:18;;;;;;;6.47;4.03;;;;;;;15.64;44.07;100455.56;1826917;76;20943;-54
2021/04/19 12:03:46;;;;;;;12.73;5.12;;;;;;;15.41;43.81;100461.54;1827252;77;21254;-54
2021/04/19 12:06:15;;;;;;;11.12;4.65;;;;;;;15.21;44.52;100449.70;1829049;77;20946;-55
2021/04/19 12:08:44;;;;;;;12.37;4.95;;;;;;;15.08;44.88;100453.27;1826818;77;21438;-55
2021/04/19 12:11:16;;;;;;;12.47;9.00;;;;;;;14.98;45.48;100445.16;1830735;77;20982;-55
2021/04/19 12:13:47;;;;;;;13.50;5.12;;;;;;;14.92;45.93;100447.73;1826626;76;20989;-55
2021/04/19 12:16:16;;;;;;;12.63;5.25;;;;;;;14.88;45.56;100451.67;1831903;77;21197;-55
2021/04/19 12:18:44;;;;;;;21.45;5.83;;;;;;;14.82;45.61;100450.93;1826050;77;20973;-54
2021/04/19 12:21:12;;;;;;;17.45;5.75;;;;;;;14.80;46.14;100444.89;1833541;77;20983;-54
2021/04/19 12:23:40;;;;;;;22.98;5.37;;;;;;;14.79;45.94;100443.25;1825617;76;20962;-54
2021/04/19 12:26:10;;;;;;;9.03;4.37;;;;;;;14.78;45.73;100441.59;1826491;77;21022;-54
2021/04/19 12:28:39;;;;;;;8.88;4.12;;;;;;;14.79;45.82;100439.09;1806564;77;21426;-54
2021/04/19 12:31:07;;;;;;;8.68;4.75;;;;;;;14.76;45.07;100432.80;1826982;77;21006;-56
2021/04/19 12:33:35;;;;;;;14.45;5.72;;;;;;;14.68;45.14;100433.47;1834351;77;21662;-56
2021/04/19 12:36:06;;;;;;;15.90;6.12;;;;;;;14.60;45.05;100426.63;1827816;77;20920;-55
2021/04/19 12:38:34;;;;;;;6.58;4.75;;;;;;;14.62;45.40;100427.77;1830692;77;20941;-55
2021/04/19 12:41:02;;;;;;;6.75;4.45;;;;;;;14.63;45.20;100416.95;1834068;77;21932;-54
2021/04/19 12:43:31;;;;;;;11.03;4.20;;;;;;;14.62;45.15;100418.09;1829191;77;21421;-55
2021/04/19 12:45:59;;;;;;;21.05;9.78;;;;;;;14.61;44.43;100419.18;1830451;76;21045;-55
2021/04/19 12:48:27;;;;;;;18.60;9.23;;;;;;;14.69;44.76;100417.96;1827979;76;20980;-53
2021/04/19 12:50:54;;;;;;;8.35;4.80;;;;;;;14.99;44.63;100418.58;1828795;77;20947;-54
2021/04/19 12:53:22;;;;;;;6.95;4.17;;;;;;;15.75;44.49;100424.34;1827402;76;21130;-53
2021/04/19 12:55:51;;;;;;;6.87;5.03;;;;;;;16.47;42.35;100421.98;1826666;76;20987;-53
2021/04/19 12:58:20;;;;;;;6.67;4.40;;;;;;;16.74;41.21;100419.08;1824484;77;20993;-54
2021/04/19 13:00:47;;;;;;;17.02;4.92;;;;;;;16.71;41.04;100419.72;1825746;76;20975;-54
2021/04/19 13:03:20;;;;;;;6.47;4.00;;;;;;;16.63;40.85;100414.11;1824435;77;20981;-54
2021/04/19 13:05:47;;;;;;;6.53;4.20;;;;;;;16.51;41.51;100420.22;1827029;77;22153;-54
2021/04/19 13:08:19;;;;;;;8.08;6.20;;;;;;;16.35;41.34;100424.73;1825678;77;21126;-53